SBI5362 UNWW-UNNT
Flight info
| Callsign | SBI5362 |
|---|---|
| Flight time | 0h 47m |
| Altitude | 26000 |
| Route | OGNO1M OGNOR R241 BEGIL BEGI1K |
| Aircraft | E170/M-VGDW/C |
Departure
| Time | 2026-05-04 10:04 |
|---|---|
| Airport | Spichenkovo Airport (UNWW) |
Arrival
| Time | 2026-05-04 10:51 |
|---|---|
| Airport | Novosibirsk Tolmachevo Airport (UNNT) |
| Time | Latitude | Longitude | Altitude | Speed | Heading |
|---|---|---|---|---|---|
| 2026-05-04 09:44 | 53.80483 | 86.86627 | 1002 ft | 0 kts | 289° |
| 2026-05-04 09:54 | 53.80483 | 86.86628 | 1003 ft | 0 kts | 289° |
| 2026-05-04 09:54 | 53.80479 | 86.86647 | 1003 ft | 2 kts | 289° |
| 2026-05-04 09:55 | 53.80474 | 86.86671 | 1004 ft | 2 kts | 289° |
| 2026-05-04 09:55 | 53.80469 | 86.86695 | 1004 ft | 2 kts | 289° |
| 2026-05-04 09:55 | 53.80466 | 86.86710 | 1005 ft | 2 kts | 289° |
| 2026-05-04 09:55 | 53.80466 | 86.86735 | 1005 ft | 2 kts | 243° |
| 2026-05-04 09:56 | 53.80476 | 86.86752 | 1006 ft | 1 kts | 206° |
| 2026-05-04 09:56 | 53.80482 | 86.86755 | 1006 ft | 1 kts | 197° |
| 2026-05-04 09:56 | 53.80484 | 86.86757 | 1006 ft | 0 kts | 200° |
| 2026-05-04 09:57 | 53.80483 | 86.86756 | 1006 ft | 0 kts | 200° |
| 2026-05-04 09:57 | 53.80462 | 86.86743 | 1005 ft | 5 kts | 201° |
| 2026-05-04 09:58 | 53.80408 | 86.86708 | 1003 ft | 11 kts | 202° |
| 2026-05-04 09:58 | 53.80318 | 86.86710 | 1001 ft | 15 kts | 132° |
| 2026-05-04 09:58 | 53.80275 | 86.86893 | 1001 ft | 18 kts | 109° |
| 2026-05-04 10:00 | 53.81045 | 86.87736 | 1014 ft | 41 kts | 21° |
| 2026-05-04 10:00 | 53.81316 | 86.87906 | 1014 ft | 41 kts | 19° |
| 2026-05-04 10:02 | 53.82330 | 86.88444 | 983 ft | 4 kts | 200° |
| 2026-05-04 10:04 | 53.79179 | 86.86544 | 1590 ft | 177 kts | 214° |
| 2026-05-04 10:04 | 53.77965 | 86.85483 | 1876 ft | 214 kts | 208° |
| 2026-05-04 10:04 | 53.76462 | 86.84430 | 2143 ft | 252 kts | 204° |
| 2026-05-04 10:04 | 53.74712 | 86.83408 | 2535 ft | 282 kts | 201° |
| 2026-05-04 10:05 | 53.72809 | 86.82287 | 3247 ft | 294 kts | 212° |
| 2026-05-04 10:05 | 53.71403 | 86.79967 | 4167 ft | 289 kts | 245° |
| 2026-05-04 10:05 | 53.71003 | 86.76819 | 5255 ft | 278 kts | 278° |
| 2026-05-04 10:05 | 53.71530 | 86.73737 | 6320 ft | 274 kts | 291° |
| 2026-05-04 10:06 | 53.72167 | 86.70781 | 7259 ft | 275 kts | 291° |
| 2026-05-04 10:06 | 53.72831 | 86.67736 | 8158 ft | 278 kts | 295° |
| 2026-05-04 10:06 | 53.73986 | 86.65151 | 8959 ft | 282 kts | 314° |
| 2026-05-04 10:08 | 53.82400 | 86.50806 | 13904 ft | 293 kts | 316° |
| 2026-05-04 10:08 | 53.83832 | 86.48361 | 14672 ft | 295 kts | 316° |
| 2026-05-04 10:08 | 53.85265 | 86.45911 | 15385 ft | 298 kts | 316° |
| 2026-05-04 10:08 | 53.86716 | 86.43429 | 16088 ft | 301 kts | 317° |
| 2026-05-04 10:09 | 53.88182 | 86.40918 | 16760 ft | 304 kts | 317° |
| 2026-05-04 10:09 | 53.89675 | 86.38356 | 17474 ft | 306 kts | 317° |
| 2026-05-04 10:09 | 53.91167 | 86.35795 | 18163 ft | 308 kts | 317° |
| 2026-05-04 10:09 | 53.92669 | 86.33212 | 18840 ft | 310 kts | 316° |
| 2026-05-04 10:10 | 53.94175 | 86.30621 | 19513 ft | 313 kts | 317° |
| 2026-05-04 10:10 | 53.95695 | 86.28003 | 20185 ft | 315 kts | 317° |
| 2026-05-04 10:10 | 53.97233 | 86.25352 | 20830 ft | 317 kts | 317° |
| 2026-05-04 10:10 | 53.98785 | 86.22672 | 21464 ft | 320 kts | 317° |
| 2026-05-04 10:11 | 54.00330 | 86.19975 | 22065 ft | 324 kts | 314° |
| 2026-05-04 10:11 | 54.01507 | 86.16654 | 22652 ft | 333 kts | 301° |
| 2026-05-04 10:11 | 54.02507 | 86.13163 | 23247 ft | 335 kts | 301° |
| 2026-05-04 10:11 | 54.03530 | 86.09566 | 23825 ft | 338 kts | 301° |
| 2026-05-04 10:12 | 54.04541 | 86.05996 | 24397 ft | 340 kts | 301° |
| 2026-05-04 10:12 | 54.05573 | 86.02341 | 24951 ft | 343 kts | 301° |
| 2026-05-04 10:12 | 54.06594 | 85.98719 | 25462 ft | 345 kts | 301° |
| 2026-05-04 10:12 | 54.07636 | 85.95016 | 25948 ft | 347 kts | 301° |
| 2026-05-04 10:13 | 54.08664 | 85.91355 | 26087 ft | 346 kts | 301° |
| 2026-05-04 10:13 | 54.09697 | 85.87673 | 26111 ft | 349 kts | 301° |
| 2026-05-04 10:13 | 54.10744 | 85.83933 | 26123 ft | 350 kts | 301° |
| 2026-05-04 10:13 | 54.11788 | 85.80200 | 26123 ft | 350 kts | 301° |
| 2026-05-04 10:14 | 54.12835 | 85.76447 | 26126 ft | 351 kts | 301° |
| 2026-05-04 10:14 | 54.13880 | 85.72699 | 26123 ft | 349 kts | 301° |
| 2026-05-04 10:16 | 54.21102 | 85.46615 | 26117 ft | 350 kts | 301° |
| 2026-05-04 10:16 | 54.22141 | 85.42839 | 26120 ft | 351 kts | 301° |
| 2026-05-04 10:16 | 54.23180 | 85.39047 | 26123 ft | 352 kts | 300° |
| 2026-05-04 10:16 | 54.24068 | 85.35168 | 26123 ft | 352 kts | 297° |
| 2026-05-04 10:17 | 54.24926 | 85.31259 | 26121 ft | 354 kts | 296° |
| 2026-05-04 10:17 | 54.25784 | 85.27332 | 26121 ft | 354 kts | 296° |
| 2026-05-04 10:19 | 54.31746 | 84.99789 | 26123 ft | 354 kts | 296° |
| 2026-05-04 10:19 | 54.32604 | 84.95790 | 26125 ft | 355 kts | 296° |
| 2026-05-04 10:19 | 54.33454 | 84.91830 | 26125 ft | 355 kts | 296° |
| 2026-05-04 10:19 | 54.34292 | 84.87913 | 26121 ft | 354 kts | 296° |
| 2026-05-04 10:20 | 54.35134 | 84.83971 | 26122 ft | 354 kts | 296° |
| 2026-05-04 10:20 | 54.35976 | 84.80018 | 26127 ft | 356 kts | 296° |
| 2026-05-04 10:20 | 54.36820 | 84.76051 | 26064 ft | 357 kts | 296° |
| 2026-05-04 10:20 | 54.37671 | 84.72041 | 25614 ft | 356 kts | 296° |
| 2026-05-04 10:21 | 54.38509 | 84.68085 | 25184 ft | 351 kts | 296° |
| 2026-05-04 10:21 | 54.39326 | 84.64218 | 24761 ft | 348 kts | 296° |
| 2026-05-04 10:21 | 54.40149 | 84.60320 | 24292 ft | 348 kts | 296° |
| 2026-05-04 10:21 | 54.40964 | 84.56453 | 23783 ft | 346 kts | 296° |
| 2026-05-04 10:22 | 54.42579 | 84.48764 | 22753 ft | 342 kts | 296° |
| 2026-05-04 10:22 | 54.43386 | 84.44912 | 22241 ft | 339 kts | 295° |
| 2026-05-04 10:22 | 54.44179 | 84.41120 | 21732 ft | 337 kts | 296° |
| 2026-05-04 10:23 | 54.44963 | 84.37362 | 21236 ft | 335 kts | 295° |
| 2026-05-04 10:23 | 54.45733 | 84.33665 | 20756 ft | 333 kts | 295° |
| 2026-05-04 10:25 | 54.51711 | 84.08755 | 17479 ft | 313 kts | 307° |
| 2026-05-04 10:25 | 54.52919 | 84.05629 | 17034 ft | 311 kts | 307° |
| 2026-05-04 10:25 | 54.54096 | 84.02580 | 16600 ft | 309 kts | 307° |
| 2026-05-04 10:25 | 54.55227 | 83.99646 | 16182 ft | 307 kts | 307° |
| 2026-05-04 10:26 | 54.56395 | 83.96613 | 15744 ft | 305 kts | 307° |
| 2026-05-04 10:26 | 54.57568 | 83.93562 | 15314 ft | 304 kts | 307° |
| 2026-05-04 10:26 | 54.58716 | 83.90573 | 14891 ft | 302 kts | 307° |
| 2026-05-04 10:26 | 54.59874 | 83.87556 | 14466 ft | 301 kts | 307° |
| 2026-05-04 10:27 | 54.61019 | 83.84566 | 14042 ft | 300 kts | 307° |
| 2026-05-04 10:27 | 54.62156 | 83.81596 | 13621 ft | 298 kts | 307° |
| 2026-05-04 10:27 | 54.63294 | 83.78621 | 13201 ft | 296 kts | 307° |
| 2026-05-04 10:27 | 54.64423 | 83.75663 | 12786 ft | 295 kts | 307° |
| 2026-05-04 10:28 | 54.65549 | 83.72710 | 12381 ft | 294 kts | 306° |
| 2026-05-04 10:28 | 54.66651 | 83.69814 | 11992 ft | 293 kts | 306° |
| 2026-05-04 10:28 | 54.67779 | 83.66852 | 11590 ft | 292 kts | 306° |
| 2026-05-04 10:28 | 54.68889 | 83.63930 | 11197 ft | 291 kts | 306° |
| 2026-05-04 10:29 | 54.69991 | 83.61025 | 10806 ft | 289 kts | 306° |
| 2026-05-04 10:29 | 54.71075 | 83.58166 | 10490 ft | 288 kts | 306° |
| 2026-05-04 10:29 | 54.72134 | 83.55227 | 10157 ft | 289 kts | 300° |
| 2026-05-04 10:29 | 54.73035 | 83.52126 | 9838 ft | 288 kts | 299° |
| 2026-05-04 10:30 | 54.73923 | 83.49039 | 9518 ft | 287 kts | 299° |
| 2026-05-04 10:30 | 54.74817 | 83.45928 | 9182 ft | 286 kts | 299° |
| 2026-05-04 10:30 | 54.75689 | 83.42885 | 8862 ft | 286 kts | 299° |
| 2026-05-04 10:30 | 54.76564 | 83.39829 | 8542 ft | 284 kts | 298° |
| 2026-05-04 10:31 | 54.77440 | 83.36767 | 8214 ft | 283 kts | 298° |
| 2026-05-04 10:31 | 54.78305 | 83.33737 | 7893 ft | 282 kts | 297° |
| 2026-05-04 10:32 | 54.83433 | 83.15699 | 5997 ft | 277 kts | 296° |
| 2026-05-04 10:33 | 54.84392 | 83.12821 | 5673 ft | 276 kts | 313° |
| 2026-05-04 10:33 | 54.86021 | 83.11123 | 5398 ft | 277 kts | 342° |
| 2026-05-04 10:33 | 54.87880 | 83.10345 | 5119 ft | 277 kts | 346° |
| 2026-05-04 10:33 | 54.89748 | 83.09628 | 4810 ft | 276 kts | 346° |
| 2026-05-04 10:34 | 54.91614 | 83.08925 | 4502 ft | 274 kts | 345° |
| 2026-05-04 10:34 | 54.93268 | 83.07396 | 4193 ft | 271 kts | 316° |
| 2026-05-04 10:34 | 54.94546 | 83.05009 | 3916 ft | 272 kts | 312° |
| 2026-05-04 10:34 | 54.95799 | 83.02567 | 3618 ft | 271 kts | 312° |
| 2026-05-04 10:35 | 54.97060 | 83.00092 | 3304 ft | 271 kts | 312° |
| 2026-05-04 10:35 | 54.98299 | 82.97652 | 2999 ft | 270 kts | 312° |
| 2026-05-04 10:35 | 54.99520 | 82.95242 | 2696 ft | 263 kts | 312° |
| 2026-05-04 10:35 | 55.00706 | 82.92899 | 2295 ft | 255 kts | 311° |
| 2026-05-04 10:36 | 55.01847 | 82.90638 | 2024 ft | 242 kts | 312° |
| 2026-05-04 10:36 | 55.02832 | 82.88436 | 1980 ft | 225 kts | 293° |
| 2026-05-04 10:36 | 55.02994 | 82.85734 | 2052 ft | 224 kts | 268° |
| 2026-05-04 10:36 | 55.02841 | 82.83101 | 2127 ft | 219 kts | 265° |
| 2026-05-04 10:37 | 55.02632 | 82.80577 | 1812 ft | 195 kts | 264° |
| 2026-05-04 10:37 | 55.02444 | 82.78459 | 1607 ft | 166 kts | 264° |
| 2026-05-04 10:37 | 55.02278 | 82.76595 | 1368 ft | 143 kts | 264° |
| 2026-05-04 10:37 | 55.02136 | 82.75008 | 1170 ft | 128 kts | 265° |
| 2026-05-04 10:39 | 55.01320 | 82.66206 | 654 ft | 123 kts | 263° |
| 2026-05-04 10:39 | 55.01144 | 82.64632 | 944 ft | 142 kts | 264° |
| 2026-05-04 10:39 | 55.00835 | 82.62952 | 1403 ft | 156 kts | 236° |
| 2026-05-04 10:40 | 54.99896 | 82.61964 | 1909 ft | 167 kts | 201° |
| 2026-05-04 10:40 | 54.98755 | 82.61366 | 2305 ft | 182 kts | 200° |
| 2026-05-04 10:40 | 54.97378 | 82.61146 | 2436 ft | 219 kts | 166° |
| 2026-05-04 10:40 | 54.96137 | 82.62686 | 2918 ft | 220 kts | 128° |
| 2026-05-04 10:41 | 54.95261 | 82.64838 | 2980 ft | 219 kts | 124° |
| 2026-05-04 10:41 | 54.94397 | 82.67028 | 2993 ft | 219 kts | 124° |
| 2026-05-04 10:41 | 54.93543 | 82.69188 | 2994 ft | 219 kts | 124° |
| 2026-05-04 10:41 | 54.92670 | 82.71394 | 2994 ft | 219 kts | 124° |
| 2026-05-04 10:42 | 54.91813 | 82.73546 | 2990 ft | 218 kts | 124° |
| 2026-05-04 10:42 | 54.90947 | 82.75713 | 2993 ft | 218 kts | 124° |
| 2026-05-04 10:42 | 54.90093 | 82.77876 | 2989 ft | 218 kts | 119° |
| 2026-05-04 10:42 | 54.89726 | 82.80369 | 3009 ft | 214 kts | 94° |
| 2026-05-04 10:43 | 54.89567 | 82.82958 | 2995 ft | 214 kts | 94° |
| 2026-05-04 10:44 | 54.90740 | 83.00582 | 2710 ft | 209 kts | 63° |
| 2026-05-04 10:45 | 54.91322 | 83.02884 | 2561 ft | 207 kts | 61° |
| 2026-05-04 10:45 | 54.92309 | 83.04559 | 2387 ft | 198 kts | 18° |
| 2026-05-04 10:45 | 54.93642 | 83.05101 | 2291 ft | 196 kts | 8° |
| 2026-05-04 10:45 | 54.94982 | 83.05093 | 2134 ft | 194 kts | 342° |
| 2026-05-04 10:46 | 54.96221 | 83.04171 | 2025 ft | 194 kts | 329° |
| 2026-05-04 10:46 | 54.97296 | 83.02804 | 1986 ft | 194 kts | 314° |
| 2026-05-04 10:46 | 54.98128 | 83.00985 | 1993 ft | 194 kts | 308° |
| 2026-05-04 10:46 | 54.98885 | 82.99016 | 1990 ft | 195 kts | 303° |
| 2026-05-04 10:47 | 54.99601 | 82.97083 | 1990 ft | 195 kts | 303° |
| 2026-05-04 10:47 | 55.00327 | 82.95102 | 1988 ft | 194 kts | 303° |
| 2026-05-04 10:47 | 55.01059 | 82.93114 | 1987 ft | 193 kts | 303° |
| 2026-05-04 10:47 | 55.01783 | 82.91151 | 1990 ft | 194 kts | 303° |
| 2026-05-04 10:49 | 55.02367 | 82.77564 | 1460 ft | 134 kts | 265° |
| 2026-05-04 10:49 | 55.02227 | 82.75996 | 1296 ft | 136 kts | 265° |
| 2026-05-04 10:50 | 55.02086 | 82.74387 | 1120 ft | 132 kts | 266° |
| 2026-05-04 10:51 | 55.01228 | 82.65031 | 351 ft | 14 kts | 195° |
| 2026-05-04 10:52 | 55.01137 | 82.65069 | 351 ft | 13 kts | 170° |
| 2026-05-04 10:52 | 55.01074 | 82.65086 | 351 ft | 0 kts | 173° |
| 2026-05-04 10:52 | 55.01070 | 82.65086 | 351 ft | 1 kts | 173° |
| 2026-05-04 10:54 | 55.01000 | 82.66267 | 354 ft | 27 kts | 65° |
| 2026-05-04 10:54 | 55.01043 | 82.66479 | 354 ft | 13 kts | 86° |